createdAt,value
2016-03-07T00:00:40.060Z,99.99
2016-03-07T00:01:31.500Z,99.99
2016-03-07T00:03:15.803Z,99.99
2016-03-07T00:03:47.756Z,99.99
2016-03-07T00:05:44.746Z,99.99
2016-03-07T00:06:10.045Z,99.99
2016-03-07T00:08:19.629Z,99.99
2016-03-07T00:10:16.634Z,99.99
2016-03-07T00:10:32.353Z,99.99
2016-03-07T00:13:13.252Z,99.99
2016-03-07T00:13:47.549Z,99.99
2016-03-07T00:16:28.432Z,99.99
2016-03-07T00:17:02.762Z,99.99
2016-03-07T00:19:15.503Z,99.99
2016-03-07T00:21:09.508Z,99.99
2016-03-07T00:21:28.320Z,99.99
2016-03-07T00:23:43.497Z,99.99
2016-03-07T00:24:43.530Z,99.99
2016-03-07T00:25:43.534Z,99.99
2016-03-07T00:26:56.351Z,99.99
2016-03-07T00:27:56.322Z,99.99
2016-03-07T00:29:09.247Z,99.99
2016-03-07T00:31:55.412Z,99.99
2016-03-07T00:32:33.630Z,99.99
2016-03-07T00:34:04.964Z,99.99
2016-03-07T00:34:43.027Z,99.99
2016-03-07T00:36:53.315Z,99.99
2016-03-07T00:37:53.319Z,99.99
2016-03-07T00:39:06.149Z,99.99
2016-03-07T00:39:59.605Z,99.99
2016-03-07T00:41:19.030Z,99.99
2016-03-07T00:42:23.532Z,99.99
2016-03-07T00:43:22.129Z,99.99
2016-03-07T00:44:41.335Z,99.99
2016-03-07T00:45:25.400Z,99.99
2016-03-07T00:46:50.890Z,99.99
2016-03-07T00:49:18.817Z,99.99
2016-03-07T00:50:06.086Z,99.99
2016-03-07T00:51:25.322Z,99.99
2016-03-07T00:52:06.122Z,99.99
2016-03-07T00:53:37.437Z,99.99
2016-03-07T00:54:15.674Z,99.99
2016-03-07T00:55:41.349Z,99.99
2016-03-07T00:56:26.617Z,99.99
2016-03-07T00:57:26.635Z,99.99
2016-03-07T00:58:45.888Z,99.99
2016-03-07T00:59:42.485Z,99.99
2016-03-07T01:00:48.753Z,99.99
2016-03-07T01:02:08.180Z,99.99
2016-03-07T01:02:55.246Z,99.99
2016-03-07T01:04:14.466Z,99.99
2016-03-07T01:04:55.297Z,99.99
2016-03-07T01:06:15.285Z,99.99
2016-03-07T01:07:05.631Z,99.99
2016-03-07T01:08:15.166Z,99.99
2016-03-07T01:09:15.183Z,99.99
2016-03-07T01:10:15.201Z,99.99
2016-03-07T01:11:15.220Z,99.99
2016-03-07T01:13:12.209Z,99.99
2016-03-07T01:13:50.587Z,99.99
2016-03-07T01:14:24.696Z,99.99
2016-03-07T01:15:57.467Z,99.99
2016-03-07T01:16:35.733Z,99.99
2016-03-07T01:17:35.768Z,99.99
2016-03-07T01:18:50.945Z,99.99
2016-03-07T01:19:50.962Z,99.99
2016-03-07T01:20:51.200Z,99.99
2016-03-07T01:21:57.250Z,99.99
2016-03-07T01:23:03.736Z,99.99
2016-03-07T01:24:03.755Z,99.99
2016-03-07T01:25:10.242Z,99.99
2016-03-07T01:26:22.870Z,99.99
2016-03-07T01:27:13.029Z,99.99
2016-03-07T01:28:25.969Z,99.99
2016-03-07T01:29:41.205Z,99.99
2016-03-07T01:30:25.100Z,99.99
2016-03-07T01:31:44.305Z,99.99
2016-03-07T01:32:25.104Z,99.99
2016-03-07T01:33:50.797Z,99.99
2016-03-07T01:34:34.657Z,99.99
2016-03-07T01:35:34.690Z,99.99
2016-03-07T01:36:34.694Z,99.99
2016-03-07T01:37:47.446Z,99.99
2016-03-07T01:38:35.323Z,99.99
2016-03-07T01:40:00.407Z,99.99
2016-03-07T01:41:09.848Z,99.99
2016-03-07T01:41:57.115Z,99.99
2016-03-07T01:43:16.321Z,99.99
2016-03-07T01:44:28.449Z,99.99
2016-03-07T01:45:28.452Z,99.99
2016-03-07T01:45:57.095Z,99.99
2016-03-07T01:48:06.695Z,99.99
2016-03-07T01:49:06.712Z,99.99
2016-03-07T01:50:07.340Z,99.99
2016-03-07T01:51:22.530Z,99.99
2016-03-07T01:52:22.534Z,99.99
2016-03-07T01:53:23.145Z,99.99
2016-03-07T01:54:35.304Z,99.99
2016-03-07T01:55:35.307Z,99.99
2016-03-07T01:56:41.794Z,99.99
2016-03-07T01:57:38.625Z,99.99
2016-03-07T01:59:41.646Z,99.99
2016-03-07T02:00:38.257Z,99.99
2016-03-07T02:01:38.261Z,99.99
2016-03-07T02:02:44.544Z,99.99
2016-03-07T02:03:51.019Z,99.99
2016-03-07T02:04:38.300Z,99.99
2016-03-07T02:06:03.977Z,99.99
2016-03-07T02:06:47.836Z,99.99
2016-03-07T02:08:07.060Z,99.99
2016-03-07T02:09:03.657Z,99.99
2016-03-07T02:10:10.176Z,99.99
2016-03-07T02:11:25.366Z,99.99
2016-03-07T02:12:16.352Z,99.99
2016-03-07T02:13:16.340Z,99.99
2016-03-07T02:14:28.796Z,99.99
2016-03-07T02:15:25.767Z,99.99
2016-03-07T02:16:35.910Z,99.99
2016-03-07T02:18:51.212Z,99.99
2016-03-07T02:19:51.215Z,99.99
2016-03-07T02:20:57.499Z,99.99
2016-03-07T02:21:51.237Z,99.99
2016-03-07T02:22:51.255Z,99.99
2016-03-07T02:24:04.010Z,99.99
2016-03-07T02:24:51.276Z,99.99
2016-03-07T02:26:10.484Z,99.99
2016-03-07T02:27:20.034Z,99.99
2016-03-07T02:28:13.552Z,99.99
2016-03-07T02:29:25.681Z,99.99
2016-03-07T02:30:20.058Z,99.99
2016-03-07T02:31:54.514Z,99.99
2016-03-07T02:32:54.406Z,99.99
2016-03-07T02:34:09.583Z,99.99
2016-03-07T02:35:09.571Z,99.99
2016-03-07T02:36:09.605Z,99.99
2016-03-07T02:37:09.655Z,99.99
2016-03-07T02:38:17.298Z,99.99
2016-03-07T02:39:09.644Z,99.99
2016-03-07T02:40:22.382Z,99.99
2016-03-07T02:41:11.071Z,99.99
2016-03-07T02:42:28.887Z,99.99
2016-03-07T02:43:12.093Z,99.99
2016-03-07T02:44:35.392Z,99.99
2016-03-07T02:45:44.927Z,99.99
2016-03-07T02:46:28.819Z,99.99
2016-03-07T02:47:28.807Z,99.99
2016-03-07T02:48:28.824Z,99.99
2016-03-07T02:49:28.827Z,99.99
2016-03-07T02:50:29.455Z,99.99
2016-03-07T02:51:54.551Z,99.99
2016-03-07T02:52:28.867Z,99.99
2016-03-07T02:54:00.185Z,99.99
2016-03-07T02:54:44.060Z,99.99
2016-03-07T02:55:44.062Z,99.99
2016-03-07T02:56:44.081Z,99.99
2016-03-07T02:57:44.239Z,99.99
2016-03-07T02:58:44.101Z,99.99
2016-03-07T03:00:10.403Z,99.99
2016-03-07T03:00:48.638Z,99.99
2016-03-07T03:01:48.657Z,99.99
2016-03-07T03:02:48.675Z,99.99
2016-03-07T03:04:01.414Z,99.99
2016-03-07T03:04:48.696Z,99.99
2016-03-07T03:06:14.452Z,99.99
2016-03-07T03:06:50.139Z,99.99
2016-03-07T03:09:03.928Z,99.99
2016-03-07T03:10:03.931Z,99.99
2016-03-07T03:11:04.043Z,99.99
2016-03-07T03:12:04.561Z,99.99
2016-03-07T03:13:03.971Z,99.99
2016-03-07T03:14:16.723Z,99.99
2016-03-07T03:15:16.726Z,99.99
2016-03-07T03:16:03.993Z,99.99
2016-03-07T03:17:04.028Z,99.99
2016-03-07T03:18:23.234Z,99.99
2016-03-07T03:19:16.783Z,99.99
2016-03-07T03:20:29.723Z,99.99
2016-03-07T03:22:32.807Z,99.99
2016-03-07T03:23:32.825Z,99.99
2016-03-07T03:24:45.562Z,99.99
2016-03-07T03:25:32.846Z,99.99
2016-03-07T03:26:52.084Z,99.99
2016-03-07T03:27:35.992Z,99.99
2016-03-07T03:28:35.995Z,99.99
2016-03-07T03:29:58.310Z,99.99
2016-03-07T03:31:04.831Z,99.99
2016-03-07T03:31:39.112Z,99.99
2016-03-07T03:33:45.461Z,99.99
2016-03-07T03:34:39.136Z,99.99
2016-03-07T03:35:51.905Z,99.99
2016-03-07T03:36:51.892Z,99.99
2016-03-07T03:37:58.597Z,99.99
2016-03-07T03:38:39.194Z,99.99
2016-03-07T03:41:08.546Z,99.99
2016-03-07T03:41:55.811Z,99.99
2016-03-07T03:43:15.035Z,99.99
2016-03-07T03:43:57.254Z,99.99
2016-03-07T03:45:21.510Z,99.99
2016-03-07T03:46:05.387Z,99.99
2016-03-07T03:47:24.608Z,99.99
2016-03-07T03:48:05.673Z,99.99
2016-03-07T03:49:31.067Z,99.99
2016-03-07T03:50:14.945Z,99.99
2016-03-07T03:51:40.635Z,99.99
2016-03-07T03:52:24.512Z,99.99
2016-03-07T03:53:24.499Z,99.99
2016-03-07T03:54:24.501Z,99.99
2016-03-07T03:55:30.786Z,99.99
2016-03-07T03:56:24.539Z,99.99
2016-03-07T03:57:37.292Z,99.99
2016-03-07T03:58:24.559Z,99.99
2016-03-07T03:59:24.563Z,99.99
2016-03-07T04:00:43.784Z,99.99
2016-03-07T04:01:24.568Z,99.99
2016-03-07T04:02:56.117Z,99.99
2016-03-07T04:03:34.417Z,99.99
2016-03-07T04:05:49.704Z,99.99
2016-03-07T04:06:49.706Z,99.99
2016-03-07T04:08:21.024Z,99.99
2016-03-07T04:09:05.496Z,99.99
2016-03-07T04:10:05.499Z,99.99
2016-03-07T04:11:36.830Z,99.99
2016-03-07T04:12:08.738Z,99.99
2016-03-07T04:13:40.069Z,99.99
2016-03-07T04:14:18.306Z,99.99
2016-03-07T04:15:49.622Z,99.99
2016-03-07T04:16:33.624Z,99.99
2016-03-07T04:17:52.813Z,99.99
2016-03-07T04:18:33.816Z,99.99
2016-03-07T04:20:04.947Z,99.99
2016-03-07T04:20:39.760Z,99.99
2016-03-07T04:21:36.746Z,99.99
2016-03-07T04:22:55.952Z,99.99
2016-03-07T04:23:49.501Z,99.99
2016-03-07T04:25:02.460Z,99.99
2016-03-07T04:27:09.028Z,99.99
2016-03-07T04:28:46.610Z,99.99
2016-03-07T04:29:24.893Z,99.99
2016-03-07T04:30:24.896Z,99.99
2016-03-07T04:31:37.476Z,99.99
2016-03-07T04:33:05.747Z,99.99
2016-03-07T04:34:15.298Z,99.99
2016-03-07T04:34:49.689Z,99.99
2016-03-07T04:36:59.275Z,99.99
2016-03-07T04:39:14.439Z,99.99
2016-03-07T04:40:14.536Z,99.99
2016-03-07T04:41:14.448Z,99.99
2016-03-07T04:42:14.560Z,99.99
2016-03-07T04:43:27.422Z,99.99
2016-03-07T04:44:14.332Z,99.99
2016-03-07T04:45:33.693Z,99.99
2016-03-07T04:46:14.727Z,99.99
2016-03-07T04:47:40.198Z,99.99
2016-03-07T04:48:24.139Z,99.99
2016-03-07T04:49:43.345Z,99.99
2016-03-07T04:50:58.535Z,99.99
2016-03-07T04:52:11.306Z,99.99
2016-03-07T04:53:04.809Z,99.99
2016-03-07T04:54:26.295Z,99.99
2016-03-07T04:55:20.048Z,99.99
2016-03-07T04:56:51.378Z,99.99
2016-03-07T04:58:00.913Z,99.99
2016-03-07T04:58:54.447Z,99.99
2016-03-07T05:00:40.952Z,99.99
2016-03-07T05:01:09.658Z,99.99
2016-03-07T05:03:50.538Z,99.99
2016-03-07T05:04:24.854Z,99.99
2016-03-07T05:06:59.819Z,99.99
2016-03-07T05:07:40.651Z,99.99
2016-03-07T05:09:06.328Z,99.99
2016-03-07T05:09:44.782Z,99.99
2016-03-07T05:11:41.771Z,99.99
2016-03-07T05:11:54.912Z,99.99
2016-03-07T05:14:35.857Z,99.99
2016-03-07T05:15:10.140Z,99.99
2016-03-07T05:16:10.128Z,99.99
2016-03-07T05:17:10.787Z,99.99
2016-03-07T05:18:10.165Z,99.99
2016-03-07T05:19:11.604Z,99.99
2016-03-07T05:20:22.936Z,99.99
2016-03-07T05:22:40.378Z,99.99
2016-03-07T05:25:19.792Z,99.99
2016-03-07T05:25:54.199Z,99.99
2016-03-07T05:28:34.989Z,99.99
2016-03-07T05:29:09.335Z,99.99
2016-03-07T05:31:50.215Z,99.99
2016-03-07T05:32:24.562Z,99.99
2016-03-07T05:35:39.835Z,99.99
2016-03-07T05:36:39.932Z,99.99
2016-03-07T05:37:39.810Z,99.99
2016-03-07T05:38:46.078Z,99.99
2016-03-07T05:39:39.815Z,99.99
2016-03-07T05:40:52.583Z,99.99
2016-03-07T05:41:39.868Z,99.99
2016-03-07T05:44:14.953Z,99.99
2016-03-07T05:45:08.612Z,99.99
2016-03-07T05:46:24.037Z,99.99
2016-03-07T05:47:24.259Z,99.99
2016-03-07T05:48:55.323Z,99.99
2016-03-07T05:49:36.420Z,99.99
2016-03-07T05:51:50.207Z,99.99
2016-03-07T05:52:50.240Z,99.99
2016-03-07T05:53:50.243Z,99.99
2016-03-07T05:54:50.230Z,99.99
2016-03-07T05:56:03.015Z,99.99
2016-03-07T05:56:50.267Z,99.99
2016-03-07T05:58:15.959Z,99.99
2016-03-07T05:58:50.303Z,99.99
2016-03-07T06:00:15.997Z,99.99
2016-03-07T06:00:59.965Z,99.99
2016-03-07T06:02:25.595Z,99.99
2016-03-07T06:03:03.911Z,99.99
2016-03-07T06:04:35.225Z,99.99
2016-03-07T06:05:13.478Z,99.99
2016-03-07T06:06:39.169Z,99.99
2016-03-07T06:07:23.140Z,99.99
2016-03-07T06:08:42.361Z,99.99
2016-03-07T06:11:25.448Z,99.99
2016-03-07T06:12:25.466Z,99.99
2016-03-07T06:13:25.468Z,99.99
2016-03-07T06:14:38.237Z,99.99
2016-03-07T06:15:51.240Z,99.99
2016-03-07T06:19:50.312Z,99.99
2016-03-07T06:21:16.006Z,99.99
2016-03-07T06:23:02.524Z,99.99
2016-03-07T06:24:02.542Z,99.99
2016-03-07T06:25:02.530Z,99.99
2016-03-07T06:26:12.098Z,99.99
2016-03-07T06:27:37.787Z,99.99
2016-03-07T06:28:16.040Z,99.99
2016-03-07T06:29:47.356Z,99.99
2016-03-07T06:30:25.578Z,99.99
2016-03-07T06:31:56.892Z,99.99
2016-03-07T06:32:35.114Z,99.99
2016-03-07T06:34:00.866Z,99.99
2016-03-07T06:34:39.103Z,99.99
2016-03-07T06:36:36.093Z,99.99
2016-03-07T06:36:48.655Z,99.99
2016-03-07T06:37:48.752Z,99.99
2016-03-07T06:38:48.677Z,99.99
2016-03-07T06:39:48.711Z,99.99
2016-03-07T06:40:55.088Z,99.99
2016-03-07T06:41:48.747Z,99.99
2016-03-07T06:43:07.941Z,99.99
2016-03-07T06:43:48.738Z,99.99
2016-03-07T06:45:20.071Z,99.99
2016-03-07T06:46:29.604Z,99.99
2016-03-07T06:47:03.951Z,99.99
2016-03-07T06:48:03.953Z,99.99
2016-03-07T06:49:13.691Z,99.99
2016-03-07T06:50:13.490Z,99.99
2016-03-07T06:51:13.509Z,99.99
2016-03-07T06:52:13.527Z,99.99
2016-03-07T06:53:26.265Z,99.99
2016-03-07T06:54:13.548Z,99.99
2016-03-07T06:55:32.785Z,99.99
2016-03-07T06:56:13.584Z,99.99
2016-03-07T06:58:48.055Z,99.99
2016-03-07T06:59:28.761Z,99.99
2016-03-07T07:00:28.765Z,99.99
2016-03-07T07:01:35.034Z,99.99
2016-03-07T07:02:28.761Z,99.99
2016-03-07T07:03:28.773Z,99.99
2016-03-07T07:04:28.786Z,99.99
2016-03-07T07:05:28.799Z,99.99
2016-03-07T07:06:28.780Z,99.99
2016-03-07T07:07:41.544Z,99.99
2016-03-07T07:08:35.092Z,99.99
2016-03-07T07:09:54.500Z,99.99
2016-03-07T07:10:35.344Z,99.99
2016-03-07T07:12:00.267Z,99.99
2016-03-07T07:12:46.174Z,99.99
2016-03-07T07:15:14.244Z,99.99
2016-03-07T07:15:48.556Z,99.99
2016-03-07T07:16:48.590Z,99.99
2016-03-07T07:17:48.597Z,98.06
2016-03-07T07:18:48.599Z,96.83
2016-03-07T07:19:48.633Z,97.87
2016-03-07T07:21:01.370Z,97.49
2016-03-07T07:21:48.763Z,97.3
2016-03-07T07:23:07.876Z,97.44
2016-03-07T07:23:51.798Z,97.92
2016-03-07T07:25:01.349Z,99.33
2016-03-07T07:26:01.507Z,99.52
2016-03-07T07:28:42.218Z,98.86
2016-03-07T07:29:16.564Z,99.05
2016-03-07T07:30:47.880Z,97.78
2016-03-07T07:31:31.742Z,97.78
2016-03-07T07:32:31.745Z,98.16
2016-03-07T07:34:47.047Z,97.87
2016-03-07T07:35:47.050Z,97.49
2016-03-07T07:36:46.912Z,96.83
2016-03-07T07:37:47.086Z,96.55
2016-03-07T07:38:59.823Z,97.97
2016-03-07T07:39:47.139Z,97.45
2016-03-07T07:41:12.831Z,95.65
2016-03-07T07:41:56.706Z,95.74
2016-03-07T07:43:15.931Z,92.99
2016-03-07T07:43:59.822Z,93.18
2016-03-07T07:45:19.046Z,94.98
2016-03-07T07:45:59.858Z,94.08
2016-03-07T07:47:31.161Z,94.46
2016-03-07T07:48:02.989Z,95.22
2016-03-07T07:50:18.152Z,94.98
2016-03-07T07:51:18.171Z,95.07
2016-03-07T07:52:50.126Z,94.04
2016-03-07T07:53:28.410Z,93.7
2016-03-07T07:55:25.384Z,93.23
2016-03-07T07:55:37.962Z,91.33
2016-03-07T07:56:37.996Z,90.33
2016-03-07T07:57:57.187Z,88.96
2016-03-07T07:58:38.049Z,87.73
2016-03-07T07:59:57.254Z,88.96
2016-03-07T08:00:38.054Z,89.43
2016-03-07T08:02:03.714Z,90.1
2016-03-07T08:02:38.060Z,90.43
2016-03-07T08:04:09.393Z,90.15
2016-03-07T08:04:47.722Z,89.01
2016-03-07T08:06:19.055Z,90.34
2016-03-07T08:06:58.148Z,90.91
2016-03-07T08:08:29.466Z,91.8
2016-03-07T08:09:09.110Z,90.29
2016-03-07T08:10:09.128Z,87.92
2016-03-07T08:11:24.927Z,87.49
2016-03-07T08:12:24.931Z,86.82
2016-03-07T08:13:37.714Z,84.36
2016-03-07T08:14:25.170Z,83.97
2016-03-07T08:15:50.752Z,84.17
2016-03-07T08:16:37.519Z,83.59
2016-03-07T08:17:34.491Z,83.69
2016-03-07T08:18:34.524Z,82.84
2016-03-07T08:19:53.746Z,80.79
2016-03-07T08:20:37.640Z,80.69
2016-03-07T08:21:37.673Z,79.74
2016-03-07T08:23:52.881Z,77.94
2016-03-07T08:24:52.931Z,77.66
2016-03-07T08:26:18.593Z,78.23
2016-03-07T08:27:02.468Z,78.95
2016-03-07T08:28:28.162Z,79.8
2016-03-07T08:29:37.773Z,79.76
2016-03-07T08:30:12.104Z,79.95
2016-03-07T08:31:12.122Z,79.95
2016-03-07T08:32:12.125Z,79.76
2016-03-07T08:33:24.987Z,80.27
2016-03-07T08:34:24.927Z,79.61
2016-03-07T08:35:31.383Z,78.56
2016-03-07T08:36:31.417Z,78.47
2016-03-07T08:37:37.903Z,78.19
2016-03-07T08:38:47.313Z,78.85
2016-03-07T08:39:47.331Z,79.14
2016-03-07T08:41:00.083Z,79.33
2016-03-07T08:42:00.103Z,79.95
2016-03-07T08:43:06.589Z,80.14
2016-03-07T08:44:16.157Z,80.62
2016-03-07T08:45:09.722Z,80.43
2016-03-07T08:46:50.350Z,79.76
2016-03-07T08:47:24.916Z,79.52
2016-03-07T08:48:56.246Z,78.28
2016-03-07T08:49:34.279Z,78
2016-03-07T08:50:59.314Z,76.71
2016-03-07T08:51:43.207Z,76.9
2016-03-07T08:53:02.444Z,76.9
2016-03-07T08:54:17.652Z,76.32
2016-03-07T08:55:08.640Z,75.76
2016-03-07T08:56:27.204Z,75.85
2016-03-07T08:57:18.192Z,75
2016-03-07T08:58:37.413Z,76.32
2016-03-07T09:00:21.309Z,76.39
2016-03-07T09:01:21.312Z,76.2
2016-03-07T09:02:36.517Z,77.09
2016-03-07T09:03:36.506Z,76.86
2016-03-07T09:04:36.586Z,77.33
2016-03-07T09:05:36.557Z,77.71
2016-03-07T09:06:49.295Z,78.28
2016-03-07T09:07:38.016Z,78.75
2016-03-07T09:08:55.815Z,78.19
2016-03-07T09:09:39.692Z,78.95
2016-03-07T09:11:05.399Z,78.56
2016-03-07T09:12:14.951Z,79.04
2016-03-07T09:13:08.610Z,78.91
2016-03-07T09:14:23.847Z,79.76
2016-03-07T09:15:23.881Z,80.33
2016-03-07T09:16:36.602Z,80.52
2016-03-07T09:17:36.621Z,79.85
2016-03-07T09:18:23.921Z,79.76
2016-03-07T09:20:11.972Z,78.91
2016-03-07T09:21:34.257Z,78.19
2016-03-07T09:22:59.947Z,77.9
2016-03-07T09:23:43.935Z,76.9
2016-03-07T09:25:12.314Z,76.42
2016-03-07T09:25:59.595Z,75.47
2016-03-07T09:26:59.613Z,74.71
2016-03-07T09:27:59.632Z,73.9
2016-03-07T09:29:12.387Z,73.99
2016-03-07T09:30:12.406Z,73.23
2016-03-07T09:33:12.476Z,72.95
2016-03-07T09:34:12.495Z,72.66
2016-03-07T09:36:23.547Z,72.66
2016-03-07T09:38:20.536Z,73.14
2016-03-07T09:38:34.536Z,72.95
2016-03-07T09:39:34.570Z,72.81
2016-03-07T09:40:34.589Z,72.38
2016-03-07T09:41:34.592Z,72
2016-03-07T09:42:47.345Z,71.81
2016-03-07T09:43:47.363Z,71.04
2016-03-07T09:45:00.334Z,69.75
2016-03-07T09:45:34.665Z,69.56
2016-03-07T09:47:09.139Z,70.32
2016-03-07T09:47:38.467Z,70.51
2016-03-07T09:49:47.238Z,69.56
2016-03-07T09:52:03.837Z,69.66
2016-03-07T09:53:03.887Z,69.75
2016-03-07T09:54:03.874Z,69.94
2016-03-07T09:55:03.893Z,69.94
2016-03-07T09:56:03.910Z,68.61
2016-03-07T09:57:16.666Z,69.31
2016-03-07T09:58:03.947Z,67.98
2016-03-07T09:59:03.966Z,67.76
2016-03-07T10:00:03.984Z,68.07
2016-03-07T10:01:29.708Z,68.8
2016-03-07T10:02:16.617Z,69.46
2016-03-07T10:03:13.603Z,69.46
2016-03-07T10:04:13.622Z,69.94
2016-03-07T10:05:23.187Z,70.29
2016-03-07T10:06:54.504Z,71.04
2016-03-07T10:08:10.318Z,70.1
2016-03-07T10:10:51.264Z,70.86
2016-03-07T10:11:25.595Z,70.04
2016-03-07T10:14:06.506Z,69.27
2016-03-07T10:14:40.853Z,69.18
2016-03-07T10:15:40.887Z,69.18
2016-03-07T10:16:40.906Z,68.52
2016-03-07T10:18:56.115Z,69.66
2016-03-07T10:19:56.133Z,69.27
2016-03-07T10:21:08.871Z,69.91
2016-03-07T10:22:02.420Z,70.1
2016-03-07T10:24:18.569Z,69.81
2016-03-07T10:25:37.790Z,69.81
2016-03-07T10:26:18.684Z,69.81
2016-03-07T10:28:59.486Z,70.67
2016-03-07T10:29:33.848Z,69.91
2016-03-07T10:30:33.867Z,70.67
2016-03-07T10:31:33.869Z,70.48
2016-03-07T10:32:33.918Z,71.14
2016-03-07T10:33:33.906Z,71.04
2016-03-07T10:34:33.970Z,71.04
2016-03-07T10:35:33.942Z,70.29
2016-03-07T10:36:34.053Z,70.29
2016-03-07T10:37:46.728Z,69.81
2016-03-07T10:40:34.080Z,70.1
2016-03-07T10:41:40.364Z,69.43
2016-03-07T10:42:46.852Z,69.27
2016-03-07T10:43:34.135Z,69.37
2016-03-07T10:44:53.357Z,67.38
2016-03-07T10:45:34.203Z,67
2016-03-07T10:49:09.430Z,66.65
2016-03-07T10:51:09.482Z,68.17
2016-03-07T10:51:22.188Z,68.23
2016-03-07T10:52:22.066Z,68.52
2016-03-07T10:53:22.084Z,68.61
2016-03-07T10:54:22.087Z,68.13
2016-03-07T10:55:34.854Z,67.28
2016-03-07T10:56:22.155Z,65.99
2016-03-07T10:57:41.376Z,64.37
2016-03-07T10:58:25.285Z,63.79
2016-03-07T10:59:25.319Z,64.18
2016-03-07T11:02:12.504Z,64.72
2016-03-07T11:03:13.693Z,66.14
2016-03-07T11:04:28.699Z,67.28
2016-03-07T11:07:09.594Z,69.71
2016-03-07T11:07:43.941Z,69.81
2016-03-07T11:10:18.466Z,72
2016-03-07T11:10:59.278Z,72.38
2016-03-07T11:11:59.312Z,71.67
2016-03-07T11:13:05.580Z,72.06
2016-03-07T11:14:00.068Z,72.15
2016-03-07T11:15:18.400Z,72.63
2016-03-07T11:16:00.790Z,71.67
2016-03-07T11:17:25.062Z,72.25
2016-03-07T11:18:08.984Z,72.34
2016-03-07T11:19:34.723Z,72.15
2016-03-07T11:20:44.257Z,71.3
2016-03-07T11:21:28.354Z,70.25
2016-03-07T11:22:28.372Z,69.78
2016-03-07T11:23:28.641Z,69.49
2016-03-07T11:24:28.425Z,68.64
2016-03-07T11:25:28.427Z,68.39
2016-03-07T11:26:41.180Z,68.58
2016-03-07T11:27:28.480Z,69.34
2016-03-07T11:28:54.138Z,68.39
2016-03-07T11:29:38.031Z,67.82
2016-03-07T11:31:03.722Z,68.19
2016-03-07T11:31:47.600Z,67.63
2016-03-07T11:35:29.094Z,66.58
2016-03-07T11:36:29.129Z,67.91
2016-03-07T11:37:41.866Z,69.71
2016-03-07T11:38:29.150Z,69.94
2016-03-07T11:39:48.387Z,67.47
2016-03-07T11:40:29.185Z,66.8
2016-03-07T11:41:54.877Z,65.95
2016-03-07T11:42:29.832Z,65.86
2016-03-07T11:44:38.900Z,65.47
2016-03-07T11:46:10.216Z,63.01
2016-03-07T11:46:54.109Z,63.2
2016-03-07T11:47:54.111Z,63.2
2016-03-07T11:49:19.851Z,63.67
2016-03-07T11:50:03.742Z,64.14
2016-03-07T11:51:03.759Z,63.86
2016-03-07T11:52:03.951Z,63.04
2016-03-07T11:54:18.956Z,61.23
2016-03-07T11:55:18.973Z,60.47
2016-03-07T11:56:18.992Z,60.85
2016-03-07T11:57:19.042Z,60.85
2016-03-07T11:58:19.028Z,61.32
2016-03-07T11:59:18.906Z,62.08
2016-03-07T12:00:19.112Z,62.75
2016-03-07T12:01:19.100Z,62.81
2016-03-07T12:02:19.118Z,63.67
2016-03-07T12:03:31.998Z,63.95
2016-03-07T12:04:19.139Z,63.1
2016-03-07T12:05:38.378Z,63.29
2016-03-07T12:06:31.978Z,62.53
2016-03-07T12:09:31.998Z,63.2
2016-03-07T12:10:32.033Z,62.91
2016-03-07T12:11:32.051Z,63.39
2016-03-07T12:12:44.787Z,63.1
2016-03-07T12:13:32.056Z,62.91
2016-03-07T12:14:44.949Z,63.01
2016-03-07T12:15:32.701Z,63.01
2016-03-07T12:16:51.329Z,63.29
2016-03-07T12:17:48.005Z,64.14
2016-03-07T12:18:35.226Z,64.43
2016-03-07T12:19:35.259Z,62.34
2016-03-07T12:21:00.918Z,62.24
2016-03-07T12:22:16.093Z,62.18
2016-03-07T12:23:16.112Z,62.15
2016-03-07T12:25:31.386Z,61.32
2016-03-07T12:26:31.388Z,61.39
2016-03-07T12:27:57.094Z,61.32
2016-03-07T12:29:01.581Z,61.32
2016-03-07T12:29:58.209Z,61.13
2016-03-07T12:30:54.806Z,61.42
2016-03-07T12:32:20.514Z,60.38
2016-03-07T12:33:35.688Z,59.33
2016-03-07T12:34:07.453Z,60.38
2016-03-07T12:36:08.147Z,58.69
2016-03-07T12:37:07.524Z,58.59
2016-03-07T12:38:26.749Z,58.03
2016-03-07T12:39:07.561Z,58.4
2016-03-07T12:40:07.579Z,58.31
2016-03-07T12:41:07.644Z,56.88
2016-03-07T12:42:13.960Z,59.07
2016-03-07T12:43:20.465Z,58.85
2016-03-07T12:44:33.421Z,57.26
2016-03-07T12:45:26.893Z,56.38
2016-03-07T12:46:42.395Z,57.62
2016-03-07T12:47:42.304Z,58.66
2016-03-07T12:48:42.134Z,60.66
2016-03-07T12:49:43.576Z,61.32
2016-03-07T12:51:01.374Z,60.91
2016-03-07T12:51:57.955Z,60.35
2016-03-07T12:53:04.459Z,61.2
2016-03-07T12:53:45.289Z,61.01
2016-03-07T12:55:04.509Z,60.44
2016-03-07T12:55:52.420Z,61.48
2016-03-07T12:57:14.781Z,61.39
2016-03-07T12:57:58.690Z,61.45
2016-03-07T12:59:21.023Z,60.69
2016-03-07T13:00:08.320Z,60.5
2016-03-07T13:01:08.401Z,60.98
2016-03-07T13:02:08.341Z,61.26
2016-03-07T13:03:39.675Z,60.69
2016-03-07T13:04:49.286Z,60.79
2016-03-07T13:05:23.602Z,60.88
2016-03-07T13:07:34.591Z,61.36
2016-03-07T13:10:15.488Z,60.88
2016-03-07T13:10:49.818Z,60.13
2016-03-07T13:12:22.558Z,60.88
2016-03-07T13:13:02.387Z,60.69
2016-03-07T13:14:00.936Z,61.36
2016-03-07T13:15:20.157Z,61.39
2016-03-07T13:16:04.020Z,60.82
2016-03-07T13:17:04.054Z,58.54
2016-03-07T13:19:13.871Z,60.41
2016-03-07T13:20:13.890Z,59.74
2016-03-07T13:21:23.551Z,59.55
2016-03-07T13:22:23.507Z,59.65
2016-03-07T13:23:38.712Z,59.74
2016-03-07T13:24:38.732Z,60.41
2016-03-07T13:26:10.031Z,62.02
2016-03-07T13:26:48.330Z,62.21
2016-03-07T13:28:13.973Z,60.03
2016-03-07T13:28:57.898Z,57.56
2016-03-07T13:29:57.901Z,56.89
2016-03-07T13:31:04.200Z,56.89
2016-03-07T13:32:29.269Z,57.28
2016-03-07T13:33:10.753Z,58.7
2016-03-07T13:33:58.005Z,58.61
2016-03-07T13:35:17.242Z,58.8
2016-03-07T13:36:04.339Z,57.84
2016-03-07T13:37:29.345Z,56.13
2016-03-07T13:38:07.564Z,56.61
2016-03-07T13:40:23.180Z,54.71
2016-03-07T13:41:22.824Z,54.99
2016-03-07T13:44:03.736Z,56.32
2016-03-07T13:44:38.067Z,56.99
2016-03-07T13:46:09.397Z,57.18
2016-03-07T13:46:53.274Z,57.37
2016-03-07T13:47:53.293Z,56.89
2016-03-07T13:48:53.312Z,56.83
2016-03-07T13:49:53.346Z,55.69
2016-03-07T13:50:53.365Z,55.69
2016-03-07T13:52:06.101Z,56
2016-03-07T13:52:53.400Z,55.62
2016-03-07T13:54:19.091Z,54
2016-03-07T13:55:02.968Z,53.72
2016-03-07T13:56:25.255Z,53.24
2016-03-07T13:57:21.883Z,53.53
2016-03-07T13:58:47.604Z,52.29
2016-03-07T14:01:09.062Z,51.93
2016-03-07T14:02:02.830Z,51.46
2016-03-07T14:03:09.099Z,51.75
2016-03-07T14:04:02.867Z,50.6
2016-03-07T14:05:18.042Z,49.65
2016-03-07T14:06:18.060Z,49.85
2016-03-07T14:07:50.785Z,49.85
2016-03-07T14:08:29.069Z,49.85
2016-03-07T14:11:09.980Z,49.85
2016-03-07T14:11:44.327Z,50.51
2016-03-07T14:12:44.329Z,49.56
2016-03-07T14:13:53.894Z,50.04
2016-03-07T14:14:53.913Z,50.13
2016-03-07T14:16:25.247Z,50.6
2016-03-07T14:17:34.780Z,50.42
2016-03-07T14:18:09.140Z,49.85
2016-03-07T14:20:19.318Z,48.9
2016-03-07T14:22:34.418Z,51.06
2016-03-07T14:23:34.421Z,52.29
2016-03-07T14:24:34.486Z,53.34
2016-03-07T14:25:47.224Z,53.53
2016-03-07T14:26:34.554Z,53.72
2016-03-07T14:27:53.729Z,53.81
2016-03-07T14:28:35.122Z,54.1
2016-03-07T14:30:00.204Z,54.1
2016-03-07T14:30:34.409Z,54.1
2016-03-07T14:31:34.615Z,54.86
2016-03-07T14:32:40.852Z,53.53
2016-03-07T14:35:10.436Z,52.67
2016-03-07T14:35:51.251Z,53.43
2016-03-07T14:36:51.300Z,53.24
2016-03-07T14:37:51.286Z,53.43
2016-03-07T14:39:04.072Z,53.34
2016-03-07T14:39:51.340Z,52.48
2016-03-07T14:41:10.577Z,54.26
2016-03-07T14:43:35.803Z,57.11
2016-03-07T14:44:42.291Z,57.4
2016-03-07T14:46:35.890Z,58.92
2016-03-07T14:47:39.767Z,56.92
2016-03-07T14:48:42.974Z,57.4
2016-03-07T14:49:42.960Z,54.64
2016-03-07T14:50:42.947Z,54.17
2016-03-07T14:51:58.137Z,53.78
2016-03-07T14:52:58.157Z,54.17
2016-03-07T14:54:10.924Z,54.26
2016-03-07T14:54:58.193Z,54.26
2016-03-07T14:56:23.884Z,55.3
2016-03-07T14:56:58.259Z,54.17
2016-03-07T14:58:29.563Z,52.64
2016-03-07T14:59:09.063Z,52.1
2016-03-07T15:00:59.584Z,53.31
2016-03-07T15:01:15.412Z,52.29
2016-03-07T15:03:30.436Z,51.03
2016-03-07T15:04:30.470Z,52.26
2016-03-07T15:05:30.472Z,50.56
2016-03-07T15:06:43.349Z,52.1